sensor_id;sensor_type;location;lat;lon;timestamp;P1;durP1;ratioP1;P2;durP2;ratioP2
53881;SDS011;39794;55.782;37.452;2022-08-21T00:02:19;46.03;;;31.60;;
53881;SDS011;39794;55.782;37.452;2022-08-21T00:04:49;46.50;;;30.70;;
53881;SDS011;39794;55.782;37.452;2022-08-21T00:07:25;52.00;;;32.75;;
53881;SDS011;39794;55.782;37.452;2022-08-21T00:09:55;51.72;;;32.15;;
53881;SDS011;39794;55.782;37.452;2022-08-21T00:12:24;54.40;;;32.80;;
53881;SDS011;39794;55.782;37.452;2022-08-21T00:14:53;55.60;;;32.85;;
53881;SDS011;39794;55.782;37.452;2022-08-21T00:17:23;53.08;;;33.95;;
53881;SDS011;39794;55.782;37.452;2022-08-21T00:19:52;53.15;;;33.45;;
53881;SDS011;39794;55.782;37.452;2022-08-21T00:22:20;52.47;;;33.63;;
53881;SDS011;39794;55.782;37.452;2022-08-21T00:24:49;47.13;;;31.80;;
53881;SDS011;39794;55.782;37.452;2022-08-21T00:27:19;54.33;;;33.65;;
53881;SDS011;39794;55.782;37.452;2022-08-21T00:29:48;55.28;;;35.15;;
53881;SDS011;39794;55.782;37.452;2022-08-21T00:32:19;48.63;;;33.38;;
53881;SDS011;39794;55.782;37.452;2022-08-21T00:34:48;55.85;;;33.22;;
53881;SDS011;39794;55.782;37.452;2022-08-21T00:37:17;52.70;;;34.25;;
53881;SDS011;39794;55.782;37.452;2022-08-21T00:39:46;55.92;;;34.42;;
53881;SDS011;39794;55.782;37.452;2022-08-21T00:42:15;52.65;;;33.03;;
53881;SDS011;39794;55.782;37.452;2022-08-21T00:44:46;51.22;;;35.05;;
53881;SDS011;39794;55.782;37.452;2022-08-21T00:47:17;55.85;;;33.28;;
53881;SDS011;39794;55.782;37.452;2022-08-21T00:49:46;48.63;;;33.67;;
53881;SDS011;39794;55.782;37.452;2022-08-21T00:52:15;54.75;;;35.35;;
53881;SDS011;39794;55.782;37.452;2022-08-21T00:54:47;51.65;;;34.65;;
53881;SDS011;39794;55.782;37.452;2022-08-21T00:57:17;51.03;;;33.88;;
53881;SDS011;39794;55.782;37.452;2022-08-21T00:59:51;56.58;;;33.83;;
53881;SDS011;39794;55.782;37.452;2022-08-21T01:02:22;56.90;;;32.45;;
53881;SDS011;39794;55.782;37.452;2022-08-21T01:04:51;47.92;;;33.65;;
53881;SDS011;39794;55.782;37.452;2022-08-21T01:07:20;53.63;;;33.35;;
53881;SDS011;39794;55.782;37.452;2022-08-21T01:09:53;53.22;;;32.65;;
53881;SDS011;39794;55.782;37.452;2022-08-21T01:12:21;54.63;;;32.28;;
53881;SDS011;39794;55.782;37.452;2022-08-21T01:14:52;50.15;;;33.17;;
53881;SDS011;39794;55.782;37.452;2022-08-21T01:17:21;53.10;;;32.80;;
53881;SDS011;39794;55.782;37.452;2022-08-21T01:19:49;51.83;;;31.67;;
53881;SDS011;39794;55.782;37.452;2022-08-21T01:22:19;51.15;;;31.58;;
53881;SDS011;39794;55.782;37.452;2022-08-21T01:24:48;47.38;;;30.70;;
53881;SDS011;39794;55.782;37.452;2022-08-21T01:27:17;53.40;;;32.38;;
53881;SDS011;39794;55.782;37.452;2022-08-21T01:29:47;50.85;;;31.98;;
53881;SDS011;39794;55.782;37.452;2022-08-21T01:32:25;50.47;;;30.88;;
53881;SDS011;39794;55.782;37.452;2022-08-21T01:34:54;47.90;;;29.73;;
53881;SDS011;39794;55.782;37.452;2022-08-21T01:37:26;47.08;;;28.55;;
53881;SDS011;39794;55.782;37.452;2022-08-21T01:39:55;49.25;;;30.45;;
53881;SDS011;39794;55.782;37.452;2022-08-21T01:42:24;47.38;;;30.67;;
53881;SDS011;39794;55.782;37.452;2022-08-21T01:44:52;46.40;;;32.45;;
53881;SDS011;39794;55.782;37.452;2022-08-21T01:47:22;47.97;;;29.42;;
53881;SDS011;39794;55.782;37.452;2022-08-21T01:49:51;44.05;;;28.60;;
53881;SDS011;39794;55.782;37.452;2022-08-21T01:52:20;45.65;;;29.98;;
53881;SDS011;39794;55.782;37.452;2022-08-21T01:54:50;47.17;;;28.88;;
53881;SDS011;39794;55.782;37.452;2022-08-21T01:57:21;46.42;;;28.83;;
53881;SDS011;39794;55.782;37.452;2022-08-21T01:59:52;41.53;;;27.17;;
53881;SDS011;39794;55.782;37.452;2022-08-21T02:02:21;53.40;;;29.27;;
53881;SDS011;39794;55.782;37.452;2022-08-21T02:04:49;43.03;;;25.85;;
53881;SDS011;39794;55.782;37.452;2022-08-21T02:07:20;44.33;;;27.83;;
53881;SDS011;39794;55.782;37.452;2022-08-21T02:09:51;43.55;;;28.77;;
53881;SDS011;39794;55.782;37.452;2022-08-21T02:12:21;42.35;;;27.05;;
53881;SDS011;39794;55.782;37.452;2022-08-21T02:15:10;47.55;;;27.75;;
53881;SDS011;39794;55.782;37.452;2022-08-21T02:17:40;44.65;;;27.05;;
53881;SDS011;39794;55.782;37.452;2022-08-21T02:20:09;42.60;;;27.75;;
53881;SDS011;39794;55.782;37.452;2022-08-21T02:22:38;39.67;;;26.50;;
53881;SDS011;39794;55.782;37.452;2022-08-21T02:25:09;46.95;;;26.75;;
53881;SDS011;39794;55.782;37.452;2022-08-21T02:27:39;40.30;;;25.75;;
53881;SDS011;39794;55.782;37.452;2022-08-21T02:30:09;41.40;;;27.50;;
53881;SDS011;39794;55.782;37.452;2022-08-21T02:32:39;40.00;;;25.58;;
53881;SDS011;39794;55.782;37.452;2022-08-21T02:35:09;40.78;;;26.95;;
53881;SDS011;39794;55.782;37.452;2022-08-21T02:37:45;37.25;;;25.10;;
53881;SDS011;39794;55.782;37.452;2022-08-21T02:40:17;43.28;;;25.50;;
53881;SDS011;39794;55.782;37.452;2022-08-21T02:42:47;44.10;;;26.05;;
53881;SDS011;39794;55.782;37.452;2022-08-21T02:45:16;36.88;;;25.30;;
53881;SDS011;39794;55.782;37.452;2022-08-21T02:47:48;38.28;;;24.77;;
53881;SDS011;39794;55.782;37.452;2022-08-21T02:50:18;43.50;;;25.13;;
53881;SDS011;39794;55.782;37.452;2022-08-21T02:52:48;41.38;;;25.52;;
53881;SDS011;39794;55.782;37.452;2022-08-21T02:55:23;40.97;;;25.30;;
53881;SDS011;39794;55.782;37.452;2022-08-21T02:57:53;39.35;;;24.65;;
53881;SDS011;39794;55.782;37.452;2022-08-21T03:00:23;39.17;;;24.73;;
53881;SDS011;39794;55.782;37.452;2022-08-21T03:02:53;43.95;;;25.17;;
53881;SDS011;39794;55.782;37.452;2022-08-21T03:05:23;38.45;;;24.50;;
53881;SDS011;39794;55.782;37.452;2022-08-21T03:07:53;40.33;;;24.52;;
53881;SDS011;39794;55.782;37.452;2022-08-21T03:10:23;34.25;;;22.38;;
53881;SDS011;39794;55.782;37.452;2022-08-21T03:12:52;41.25;;;24.67;;
53881;SDS011;39794;55.782;37.452;2022-08-21T03:15:22;33.58;;;24.10;;
53881;SDS011;39794;55.782;37.452;2022-08-21T03:17:52;37.28;;;22.45;;
53881;SDS011;39794;55.782;37.452;2022-08-21T03:20:22;42.70;;;25.02;;
53881;SDS011;39794;55.782;37.452;2022-08-21T03:22:54;34.03;;;22.90;;
53881;SDS011;39794;55.782;37.452;2022-08-21T03:25:25;42.25;;;24.33;;
53881;SDS011;39794;55.782;37.452;2022-08-21T03:28:07;39.95;;;24.20;;
53881;SDS011;39794;55.782;37.452;2022-08-21T03:30:39;40.42;;;25.05;;
53881;SDS011;39794;55.782;37.452;2022-08-21T03:33:08;37.83;;;24.38;;
53881;SDS011;39794;55.782;37.452;2022-08-21T03:35:41;36.58;;;22.92;;
53881;SDS011;39794;55.782;37.452;2022-08-21T03:38:11;38.50;;;24.05;;
53881;SDS011;39794;55.782;37.452;2022-08-21T03:40:42;40.30;;;23.95;;
53881;SDS011;39794;55.782;37.452;2022-08-21T03:43:12;42.03;;;24.33;;
53881;SDS011;39794;55.782;37.452;2022-08-21T03:45:41;41.63;;;25.10;;
53881;SDS011;39794;55.782;37.452;2022-08-21T03:48:09;39.47;;;22.70;;
53881;SDS011;39794;55.782;37.452;2022-08-21T03:50:40;37.70;;;24.08;;
53881;SDS011;39794;55.782;37.452;2022-08-21T03:53:10;37.50;;;24.25;;
53881;SDS011;39794;55.782;37.452;2022-08-21T03:55:45;40.77;;;23.93;;
53881;SDS011;39794;55.782;37.452;2022-08-21T03:58:16;37.88;;;23.98;;
53881;SDS011;39794;55.782;37.452;2022-08-21T04:00:46;43.25;;;23.85;;
53881;SDS011;39794;55.782;37.452;2022-08-21T04:03:18;41.22;;;24.42;;
53881;SDS011;39794;55.782;37.452;2022-08-21T04:05:46;45.05;;;24.55;;
53881;SDS011;39794;55.782;37.452;2022-08-21T04:08:15;40.83;;;24.52;;
53881;SDS011;39794;55.782;37.452;2022-08-21T04:10:47;40.05;;;24.58;;
53881;SDS011;39794;55.782;37.452;2022-08-21T04:13:17;37.65;;;24.77;;
53881;SDS011;39794;55.782;37.452;2022-08-21T04:15:46;37.80;;;23.05;;
53881;SDS011;39794;55.782;37.452;2022-08-21T04:18:16;39.90;;;24.70;;
53881;SDS011;39794;55.782;37.452;2022-08-21T04:20:45;39.45;;;23.02;;
53881;SDS011;39794;55.782;37.452;2022-08-21T04:23:15;36.67;;;22.48;;
53881;SDS011;39794;55.782;37.452;2022-08-21T04:25:52;35.47;;;22.52;;
53881;SDS011;39794;55.782;37.452;2022-08-21T04:28:23;42.13;;;25.38;;
53881;SDS011;39794;55.782;37.452;2022-08-21T04:30:55;36.97;;;23.85;;
53881;SDS011;39794;55.782;37.452;2022-08-21T04:33:24;46.00;;;25.15;;
53881;SDS011;39794;55.782;37.452;2022-08-21T04:35:53;40.53;;;25.52;;
53881;SDS011;39794;55.782;37.452;2022-08-21T04:38:22;38.17;;;23.90;;
53881;SDS011;39794;55.782;37.452;2022-08-21T04:40:52;37.60;;;24.30;;
53881;SDS011;39794;55.782;37.452;2022-08-21T04:43:21;39.22;;;24.65;;
53881;SDS011;39794;55.782;37.452;2022-08-21T04:45:50;46.55;;;25.42;;
53881;SDS011;39794;55.782;37.452;2022-08-21T04:48:20;36.20;;;24.83;;
53881;SDS011;39794;55.782;37.452;2022-08-21T04:50:52;41.45;;;26.55;;
53881;SDS011;39794;55.782;37.452;2022-08-21T04:53:25;36.75;;;25.63;;
53881;SDS011;39794;55.782;37.452;2022-08-21T04:55:56;44.80;;;25.42;;
53881;SDS011;39794;55.782;37.452;2022-08-21T04:58:28;40.80;;;26.63;;
53881;SDS011;39794;55.782;37.452;2022-08-21T05:00:59;39.38;;;26.25;;
53881;SDS011;39794;55.782;37.452;2022-08-21T05:03:28;40.03;;;26.85;;
53881;SDS011;39794;55.782;37.452;2022-08-21T05:05:58;39.28;;;27.35;;
53881;SDS011;39794;55.782;37.452;2022-08-21T05:08:26;43.00;;;26.48;;
53881;SDS011;39794;55.782;37.452;2022-08-21T05:10:57;41.88;;;26.08;;
53881;SDS011;39794;55.782;37.452;2022-08-21T05:13:26;45.13;;;27.42;;
53881;SDS011;39794;55.782;37.452;2022-08-21T05:15:55;39.55;;;26.70;;
53881;SDS011;39794;55.782;37.452;2022-08-21T05:18:24;44.50;;;27.30;;
53881;SDS011;39794;55.782;37.452;2022-08-21T05:20:53;49.03;;;31.67;;
53881;SDS011;39794;55.782;37.452;2022-08-21T05:23:22;44.63;;;29.63;;
53881;SDS011;39794;55.782;37.452;2022-08-21T05:25:51;44.42;;;29.77;;
53881;SDS011;39794;55.782;37.452;2022-08-21T05:28:21;48.67;;;30.48;;
53881;SDS011;39794;55.782;37.452;2022-08-21T05:30:52;51.33;;;32.55;;
53881;SDS011;39794;55.782;37.452;2022-08-21T05:33:21;49.17;;;29.02;;
53881;SDS011;39794;55.782;37.452;2022-08-21T05:35:50;52.45;;;30.90;;
53881;SDS011;39794;55.782;37.452;2022-08-21T05:38:19;53.72;;;33.38;;
53881;SDS011;39794;55.782;37.452;2022-08-21T05:40:48;50.17;;;33.20;;
53881;SDS011;39794;55.782;37.452;2022-08-21T05:43:17;47.88;;;31.00;;
53881;SDS011;39794;55.782;37.452;2022-08-21T05:45:47;46.75;;;28.83;;
53881;SDS011;39794;55.782;37.452;2022-08-21T05:48:17;46.42;;;31.60;;
53881;SDS011;39794;55.782;37.452;2022-08-21T05:50:48;49.55;;;30.95;;
53881;SDS011;39794;55.782;37.452;2022-08-21T05:53:17;54.15;;;33.22;;
53881;SDS011;39794;55.782;37.452;2022-08-21T05:55:47;48.08;;;32.17;;
53881;SDS011;39794;55.782;37.452;2022-08-21T05:58:17;46.50;;;30.88;;
53881;SDS011;39794;55.782;37.452;2022-08-21T06:00:49;49.00;;;32.38;;
53881;SDS011;39794;55.782;37.452;2022-08-21T06:03:19;57.25;;;31.42;;
53881;SDS011;39794;55.782;37.452;2022-08-21T06:05:49;50.25;;;29.65;;
53881;SDS011;39794;55.782;37.452;2022-08-21T06:08:20;46.60;;;29.10;;
53881;SDS011;39794;55.782;37.452;2022-08-21T06:10:49;50.58;;;30.27;;
53881;SDS011;39794;55.782;37.452;2022-08-21T06:13:19;50.15;;;29.67;;
53881;SDS011;39794;55.782;37.452;2022-08-21T06:15:50;52.67;;;31.65;;
53881;SDS011;39794;55.782;37.452;2022-08-21T06:18:28;50.88;;;31.13;;
53881;SDS011;39794;55.782;37.452;2022-08-21T06:20:56;51.45;;;30.63;;
53881;SDS011;39794;55.782;37.452;2022-08-21T06:23:26;46.97;;;29.70;;
53881;SDS011;39794;55.782;37.452;2022-08-21T06:25:59;40.05;;;28.13;;
53881;SDS011;39794;55.782;37.452;2022-08-21T06:28:28;43.55;;;28.05;;
53881;SDS011;39794;55.782;37.452;2022-08-21T06:30:58;41.55;;;26.75;;
53881;SDS011;39794;55.782;37.452;2022-08-21T06:33:27;42.40;;;27.75;;
53881;SDS011;39794;55.782;37.452;2022-08-21T06:35:58;45.97;;;28.10;;
53881;SDS011;39794;55.782;37.452;2022-08-21T06:38:27;53.60;;;31.33;;
53881;SDS011;39794;55.782;37.452;2022-08-21T06:40:57;42.97;;;28.08;;
53881;SDS011;39794;55.782;37.452;2022-08-21T06:43:29;48.33;;;27.88;;
53881;SDS011;39794;55.782;37.452;2022-08-21T06:46:07;39.03;;;26.60;;
53881;SDS011;39794;55.782;37.452;2022-08-21T06:48:36;38.53;;;26.95;;
53881;SDS011;39794;55.782;37.452;2022-08-21T06:51:05;48.83;;;28.30;;
53881;SDS011;39794;55.782;37.452;2022-08-21T06:53:33;42.28;;;27.80;;
53881;SDS011;39794;55.782;37.452;2022-08-21T06:56:02;41.83;;;26.92;;
53881;SDS011;39794;55.782;37.452;2022-08-21T06:58:31;45.75;;;27.92;;
53881;SDS011;39794;55.782;37.452;2022-08-21T07:01:00;44.53;;;28.13;;
53881;SDS011;39794;55.782;37.452;2022-08-21T07:03:31;46.00;;;28.95;;
53881;SDS011;39794;55.782;37.452;2022-08-21T07:06:03;38.30;;;28.10;;
53881;SDS011;39794;55.782;37.452;2022-08-21T07:08:33;43.33;;;28.20;;
53881;SDS011;39794;55.782;37.452;2022-08-21T07:11:04;42.15;;;27.83;;
53881;SDS011;39794;55.782;37.452;2022-08-21T07:13:35;47.17;;;28.90;;
53881;SDS011;39794;55.782;37.452;2022-08-21T07:16:04;42.05;;;27.77;;
53881;SDS011;39794;55.782;37.452;2022-08-21T07:18:36;50.40;;;28.50;;
53881;SDS011;39794;55.782;37.452;2022-08-21T07:21:06;50.40;;;30.60;;
53881;SDS011;39794;55.782;37.452;2022-08-21T07:23:36;47.72;;;29.88;;
53881;SDS011;39794;55.782;37.452;2022-08-21T07:26:09;44.92;;;27.88;;
53881;SDS011;39794;55.782;37.452;2022-08-21T07:28:39;46.28;;;29.27;;
53881;SDS011;39794;55.782;37.452;2022-08-21T07:31:08;44.80;;;28.35;;
53881;SDS011;39794;55.782;37.452;2022-08-21T07:33:41;45.30;;;28.00;;
53881;SDS011;39794;55.782;37.452;2022-08-21T07:36:11;47.97;;;26.65;;
53881;SDS011;39794;55.782;37.452;2022-08-21T07:38:39;51.95;;;29.05;;
53881;SDS011;39794;55.782;37.452;2022-08-21T07:41:10;43.10;;;28.73;;
53881;SDS011;39794;55.782;37.452;2022-08-21T07:43:42;42.05;;;27.98;;
53881;SDS011;39794;55.782;37.452;2022-08-21T07:46:13;40.83;;;25.83;;
53881;SDS011;39794;55.782;37.452;2022-08-21T07:48:43;37.40;;;24.85;;
53881;SDS011;39794;55.782;37.452;2022-08-21T07:51:13;35.65;;;21.95;;
53881;SDS011;39794;55.782;37.452;2022-08-21T07:53:45;42.13;;;23.85;;
53881;SDS011;39794;55.782;37.452;2022-08-21T07:56:16;34.05;;;22.65;;
53881;SDS011;39794;55.782;37.452;2022-08-21T07:58:45;35.13;;;21.45;;
53881;SDS011;39794;55.782;37.452;2022-08-21T08:01:14;35.95;;;22.52;;
53881;SDS011;39794;55.782;37.452;2022-08-21T08:03:44;29.50;;;21.08;;
53881;SDS011;39794;55.782;37.452;2022-08-21T08:06:13;35.67;;;21.30;;
53881;SDS011;39794;55.782;37.452;2022-08-21T08:08:43;34.90;;;20.98;;
53881;SDS011;39794;55.782;37.452;2022-08-21T08:11:12;32.40;;;21.45;;
53881;SDS011;39794;55.782;37.452;2022-08-21T08:13:42;31.65;;;21.45;;
53881;SDS011;39794;55.782;37.452;2022-08-21T08:16:13;34.15;;;22.42;;
53881;SDS011;39794;55.782;37.452;2022-08-21T08:18:42;37.40;;;22.60;;
53881;SDS011;39794;55.782;37.452;2022-08-21T08:21:12;40.10;;;25.35;;
53881;SDS011;39794;55.782;37.452;2022-08-21T08:23:41;41.92;;;24.05;;
53881;SDS011;39794;55.782;37.452;2022-08-21T08:26:11;37.00;;;24.77;;
53881;SDS011;39794;55.782;37.452;2022-08-21T08:28:42;36.67;;;23.85;;
53881;SDS011;39794;55.782;37.452;2022-08-21T08:31:11;39.47;;;24.10;;
53881;SDS011;39794;55.782;37.452;2022-08-21T08:33:39;47.30;;;25.27;;
53881;SDS011;39794;55.782;37.452;2022-08-21T08:36:13;46.08;;;24.20;;
53881;SDS011;39794;55.782;37.452;2022-08-21T08:38:44;37.75;;;23.73;;
53881;SDS011;39794;55.782;37.452;2022-08-21T08:41:15;37.00;;;23.20;;
53881;SDS011;39794;55.782;37.452;2022-08-21T08:43:48;34.10;;;22.90;;
53881;SDS011;39794;55.782;37.452;2022-08-21T08:46:19;36.95;;;22.77;;
53881;SDS011;39794;55.782;37.452;2022-08-21T08:49:03;33.78;;;22.17;;
53881;SDS011;39794;55.782;37.452;2022-08-21T08:51:41;33.55;;;19.88;;
53881;SDS011;39794;55.782;37.452;2022-08-21T08:54:13;37.90;;;19.10;;
53881;SDS011;39794;55.782;37.452;2022-08-21T08:56:45;35.65;;;19.40;;
53881;SDS011;39794;55.782;37.452;2022-08-21T08:59:22;35.80;;;18.40;;
53881;SDS011;39794;55.782;37.452;2022-08-21T09:01:56;38.03;;;20.90;;
53881;SDS011;39794;55.782;37.452;2022-08-21T09:04:26;33.42;;;19.40;;
53881;SDS011;39794;55.782;37.452;2022-08-21T09:07:10;31.27;;;18.80;;
53881;SDS011;39794;55.782;37.452;2022-08-21T09:09:46;27.10;;;16.90;;
53881;SDS011;39794;55.782;37.452;2022-08-21T09:12:24;29.17;;;18.15;;
53881;SDS011;39794;55.782;37.452;2022-08-21T09:15:00;31.73;;;17.42;;
53881;SDS011;39794;55.782;37.452;2022-08-21T09:17:37;29.48;;;15.48;;
53881;SDS011;39794;55.782;37.452;2022-08-21T09:20:11;24.30;;;16.08;;
53881;SDS011;39794;55.782;37.452;2022-08-21T09:22:50;28.42;;;16.35;;
53881;SDS011;39794;55.782;37.452;2022-08-21T09:25:37;29.70;;;16.30;;
53881;SDS011;39794;55.782;37.452;2022-08-21T09:28:10;24.38;;;15.93;;
53881;SDS011;39794;55.782;37.452;2022-08-21T09:30:41;24.85;;;15.93;;
53881;SDS011;39794;55.782;37.452;2022-08-21T09:33:11;30.65;;;17.02;;
53881;SDS011;39794;55.782;37.452;2022-08-21T09:35:50;28.45;;;16.83;;
53881;SDS011;39794;55.782;37.452;2022-08-21T09:38:26;26.02;;;15.73;;
53881;SDS011;39794;55.782;37.452;2022-08-21T09:41:00;26.27;;;15.00;;
53881;SDS011;39794;55.782;37.452;2022-08-21T09:43:30;29.70;;;14.07;;
53881;SDS011;39794;55.782;37.452;2022-08-21T09:46:07;24.67;;;13.57;;
53881;SDS011;39794;55.782;37.452;2022-08-21T09:48:39;23.08;;;13.57;;
53881;SDS011;39794;55.782;37.452;2022-08-21T09:51:10;27.25;;;14.52;;
53881;SDS011;39794;55.782;37.452;2022-08-21T09:53:44;27.83;;;13.55;;
53881;SDS011;39794;55.782;37.452;2022-08-21T09:56:19;20.92;;;13.50;;
53881;SDS011;39794;55.782;37.452;2022-08-21T09:59:15;23.50;;;13.05;;
53881;SDS011;39794;55.782;37.452;2022-08-21T10:01:49;24.20;;;13.45;;
53881;SDS011;39794;55.782;37.452;2022-08-21T10:04:21;21.25;;;12.30;;
53881;SDS011;39794;55.782;37.452;2022-08-21T10:06:51;22.63;;;13.40;;
53881;SDS011;39794;55.782;37.452;2022-08-21T10:09:25;20.67;;;12.45;;
53881;SDS011;39794;55.782;37.452;2022-08-21T10:11:57;24.60;;;12.65;;
53881;SDS011;39794;55.782;37.452;2022-08-21T10:14:40;23.95;;;13.20;;
53881;SDS011;39794;55.782;37.452;2022-08-21T10:17:17;33.15;;;13.00;;
53881;SDS011;39794;55.782;37.452;2022-08-21T10:20:00;23.70;;;12.55;;
53881;SDS011;39794;55.782;37.452;2022-08-21T10:22:38;23.85;;;12.18;;
53881;SDS011;39794;55.782;37.452;2022-08-21T10:25:16;29.17;;;12.32;;
53881;SDS011;39794;55.782;37.452;2022-08-21T10:27:51;24.40;;;11.98;;
53881;SDS011;39794;55.782;37.452;2022-08-21T10:30:27;22.23;;;11.90;;
53881;SDS011;39794;55.782;37.452;2022-08-21T10:33:04;25.33;;;12.43;;
53881;SDS011;39794;55.782;37.452;2022-08-21T10:35:42;22.15;;;12.25;;
53881;SDS011;39794;55.782;37.452;2022-08-21T10:41:36;21.55;;;11.93;;
53881;SDS011;39794;55.782;37.452;2022-08-21T10:44:13;21.13;;;11.38;;
53881;SDS011;39794;55.782;37.452;2022-08-21T10:46:51;18.45;;;10.52;;
53881;SDS011;39794;55.782;37.452;2022-08-21T10:49:25;17.95;;;9.10;;
53881;SDS011;39794;55.782;37.452;2022-08-21T10:52:04;19.58;;;8.00;;
53881;SDS011;39794;55.782;37.452;2022-08-21T10:54:50;15.65;;;6.60;;
53881;SDS011;39794;55.782;37.452;2022-08-21T10:57:24;13.95;;;6.05;;
53881;SDS011;39794;55.782;37.452;2022-08-21T10:59:59;16.90;;;6.18;;
53881;SDS011;39794;55.782;37.452;2022-08-21T11:02:37;12.63;;;6.05;;
53881;SDS011;39794;55.782;37.452;2022-08-21T11:05:11;18.73;;;6.13;;
53881;SDS011;39794;55.782;37.452;2022-08-21T11:07:43;13.95;;;6.00;;
53881;SDS011;39794;55.782;37.452;2022-08-21T11:10:16;23.80;;;6.35;;
53881;SDS011;39794;55.782;37.452;2022-08-21T11:12:52;13.32;;;6.13;;
53881;SDS011;39794;55.782;37.452;2022-08-21T11:15:25;22.05;;;6.35;;
53881;SDS011;39794;55.782;37.452;2022-08-21T11:18:03;16.77;;;5.88;;
53881;SDS011;39794;55.782;37.452;2022-08-21T11:20:40;11.50;;;6.10;;
53881;SDS011;39794;55.782;37.452;2022-08-21T11:23:14;17.30;;;5.90;;
53881;SDS011;39794;55.782;37.452;2022-08-21T11:25:49;15.15;;;6.20;;
53881;SDS011;39794;55.782;37.452;2022-08-21T11:28:22;16.10;;;5.60;;
53881;SDS011;39794;55.782;37.452;2022-08-21T11:30:56;11.43;;;5.50;;
53881;SDS011;39794;55.782;37.452;2022-08-21T11:33:31;16.23;;;5.22;;
53881;SDS011;39794;55.782;37.452;2022-08-21T11:36:11;16.67;;;4.55;;
53881;SDS011;39794;55.782;37.452;2022-08-21T11:38:48;13.40;;;4.80;;
53881;SDS011;39794;55.782;37.452;2022-08-21T11:41:23;10.10;;;4.40;;
53881;SDS011;39794;55.782;37.452;2022-08-21T11:44:02;12.02;;;4.68;;
53881;SDS011;39794;55.782;37.452;2022-08-21T11:46:40;13.20;;;4.18;;
53881;SDS011;39794;55.782;37.452;2022-08-21T11:49:28;12.88;;;4.93;;
53881;SDS011;39794;55.782;37.452;2022-08-21T11:52:07;10.98;;;5.80;;
53881;SDS011;39794;55.782;37.452;2022-08-21T11:57:13;15.45;;;7.47;;
53881;SDS011;39794;55.782;37.452;2022-08-21T11:59:46;13.70;;;8.00;;
53881;SDS011;39794;55.782;37.452;2022-08-21T12:02:22;19.63;;;9.00;;
53881;SDS011;39794;55.782;37.452;2022-08-21T12:04:54;19.05;;;10.70;;
53881;SDS011;39794;55.782;37.452;2022-08-21T12:07:30;20.38;;;10.75;;
53881;SDS011;39794;55.782;37.452;2022-08-21T12:10:00;19.35;;;10.95;;
53881;SDS011;39794;55.782;37.452;2022-08-21T12:12:31;24.73;;;11.65;;
53881;SDS011;39794;55.782;37.452;2022-08-21T12:15:11;19.42;;;10.45;;
53881;SDS011;39794;55.782;37.452;2022-08-21T12:17:51;23.20;;;10.80;;
53881;SDS011;39794;55.782;37.452;2022-08-21T12:20:35;18.88;;;8.57;;
53881;SDS011;39794;55.782;37.452;2022-08-21T12:23:24;18.95;;;10.02;;
53881;SDS011;39794;55.782;37.452;2022-08-21T12:26:10;17.02;;;9.57;;
53881;SDS011;39794;55.782;37.452;2022-08-21T12:28:46;28.00;;;9.82;;
53881;SDS011;39794;55.782;37.452;2022-08-21T12:31:21;18.67;;;9.57;;
53881;SDS011;39794;55.782;37.452;2022-08-21T12:33:52;14.60;;;9.52;;
53881;SDS011;39794;55.782;37.452;2022-08-21T12:36:24;25.65;;;9.48;;
53881;SDS011;39794;55.782;37.452;2022-08-21T12:38:56;18.05;;;9.10;;
53881;SDS011;39794;55.782;37.452;2022-08-21T12:41:30;20.98;;;8.90;;
53881;SDS011;39794;55.782;37.452;2022-08-21T12:44:02;16.55;;;8.85;;
53881;SDS011;39794;55.782;37.452;2022-08-21T12:46:36;22.23;;;8.95;;
53881;SDS011;39794;55.782;37.452;2022-08-21T12:49:08;14.73;;;8.60;;
53881;SDS011;39794;55.782;37.452;2022-08-21T12:51:49;19.92;;;8.38;;
53881;SDS011;39794;55.782;37.452;2022-08-21T12:54:26;15.82;;;7.88;;
53881;SDS011;39794;55.782;37.452;2022-08-21T12:56:57;15.93;;;8.35;;
53881;SDS011;39794;55.782;37.452;2022-08-21T12:59:27;18.80;;;8.00;;
53881;SDS011;39794;55.782;37.452;2022-08-21T13:01:59;13.25;;;8.05;;
53881;SDS011;39794;55.782;37.452;2022-08-21T13:04:32;16.13;;;8.40;;
53881;SDS011;39794;55.782;37.452;2022-08-21T13:07:07;14.63;;;7.80;;
53881;SDS011;39794;55.782;37.452;2022-08-21T13:09:46;15.18;;;8.00;;
53881;SDS011;39794;55.782;37.452;2022-08-21T13:12:16;15.35;;;7.95;;
53881;SDS011;39794;55.782;37.452;2022-08-21T13:14:46;19.60;;;7.72;;
53881;SDS011;39794;55.782;37.452;2022-08-21T13:17:18;17.42;;;8.13;;
53881;SDS011;39794;55.782;37.452;2022-08-21T13:19:58;14.32;;;7.32;;
53881;SDS011;39794;55.782;37.452;2022-08-21T13:22:30;19.50;;;7.47;;
53881;SDS011;39794;55.782;37.452;2022-08-21T13:25:08;18.42;;;7.72;;
53881;SDS011;39794;55.782;37.452;2022-08-21T13:27:42;14.98;;;7.00;;
53881;SDS011;39794;55.782;37.452;2022-08-21T13:30:18;17.33;;;7.43;;
53881;SDS011;39794;55.782;37.452;2022-08-21T13:32:54;22.90;;;7.85;;
53881;SDS011;39794;55.782;37.452;2022-08-21T13:35:26;20.20;;;7.68;;
53881;SDS011;39794;55.782;37.452;2022-08-21T13:37:58;12.80;;;6.63;;
53881;SDS011;39794;55.782;37.452;2022-08-21T13:40:29;17.15;;;6.38;;
53881;SDS011;39794;55.782;37.452;2022-08-21T13:43:03;11.93;;;6.13;;
53881;SDS011;39794;55.782;37.452;2022-08-21T13:45:47;16.23;;;5.97;;
53881;SDS011;39794;55.782;37.452;2022-08-21T13:48:21;14.25;;;6.65;;
53881;SDS011;39794;55.782;37.452;2022-08-21T13:51:02;16.48;;;5.22;;
53881;SDS011;39794;55.782;37.452;2022-08-21T13:53:32;15.63;;;4.57;;
53881;SDS011;39794;55.782;37.452;2022-08-21T13:56:03;13.82;;;4.97;;
53881;SDS011;39794;55.782;37.452;2022-08-21T13:58:43;10.00;;;4.10;;
53881;SDS011;39794;55.782;37.452;2022-08-21T14:01:17;14.80;;;4.35;;
53881;SDS011;39794;55.782;37.452;2022-08-21T14:03:50;15.95;;;4.25;;
53881;SDS011;39794;55.782;37.452;2022-08-21T14:06:27;20.02;;;5.35;;
53881;SDS011;39794;55.782;37.452;2022-08-21T14:08:58;17.23;;;6.60;;
53881;SDS011;39794;55.782;37.452;2022-08-21T14:11:28;10.75;;;4.43;;
53881;SDS011;39794;55.782;37.452;2022-08-21T14:14:04;9.65;;;4.22;;
53881;SDS011;39794;55.782;37.452;2022-08-21T14:16:45;13.18;;;4.45;;
53881;SDS011;39794;55.782;37.452;2022-08-21T14:19:20;18.08;;;5.13;;
53881;SDS011;39794;55.782;37.452;2022-08-21T14:21:52;20.63;;;6.38;;
53881;SDS011;39794;55.782;37.452;2022-08-21T14:24:25;13.55;;;6.28;;
53881;SDS011;39794;55.782;37.452;2022-08-21T14:26:56;18.02;;;6.70;;
53881;SDS011;39794;55.782;37.452;2022-08-21T14:29:34;11.68;;;5.57;;
53881;SDS011;39794;55.782;37.452;2022-08-21T14:32:09;13.70;;;6.28;;
53881;SDS011;39794;55.782;37.452;2022-08-21T14:34:52;15.23;;;5.50;;
53881;SDS011;39794;55.782;37.452;2022-08-21T14:39:53;16.52;;;4.53;;
53881;SDS011;39794;55.782;37.452;2022-08-21T14:42:23;12.73;;;3.75;;
53881;SDS011;39794;55.782;37.452;2022-08-21T14:44:53;9.75;;;3.90;;
53881;SDS011;39794;55.782;37.452;2022-08-21T14:47:29;12.40;;;3.38;;
53881;SDS011;39794;55.782;37.452;2022-08-21T14:49:59;9.25;;;3.47;;